Time;durP1;ratioP1;P1;durP2;ratioP2;P2;SDS_P1;SDS_P2;PMS_P1;PMS_P2;Temp;Humidity;BMP_temperature;BMP_pressure;BME280_temperature;BME280_humidity;BME280_pressure;Samples;Min_cycle;Max_cycle;Signal;HPM_P1;HPM_P2
2022/12/21 00:02:57;;;;;;;4.45;3.33;;;18.70;51.50;;;;;;6239026;28;20032;-75
2022/12/21 00:05:58;;;;;;;5.72;3.35;;;18.70;51.40;;;;;;6220747;28;20061;-74
2022/12/21 00:09:00;;;;;;;3.80;2.80;;;18.70;51.50;;;;;;6235200;28;20037;-74
2022/12/21 00:12:01;;;;;;;4.85;3.17;;;18.70;51.50;;;;;;6226782;28;20661;-74
2022/12/21 00:15:01;;;;;;;4.95;3.33;;;18.70;51.40;;;;;;6242995;28;20077;-73
2022/12/21 00:18:02;;;;;;;4.20;3.30;;;18.70;51.50;;;;;;6239808;28;20025;-75
2022/12/21 00:21:16;;;;;;;4.20;2.95;;;18.70;51.50;;;;;;6220619;28;20492;-74
2022/12/21 00:24:17;;;;;;;4.97;3.45;;;18.70;51.50;;;;;;6235531;28;20076;-73
2022/12/21 00:27:18;;;;;;;4.15;2.90;;;18.70;51.50;;;;;;6244455;28;20395;-74
2022/12/21 00:30:18;;;;;;;4.28;2.88;;;18.70;51.50;;;;;;6237511;28;20033;-74
2022/12/21 00:33:19;;;;;;;4.18;3.03;;;18.70;51.40;;;;;;6225546;28;20076;-74
2022/12/21 00:36:22;;;;;;;5.20;3.38;;;18.70;51.40;;;;;;6245162;28;20487;-74
2022/12/21 00:39:22;;;;;;;4.28;2.85;;;18.70;51.50;;;;;;6231536;28;20451;-74
2022/12/21 00:42:23;;;;;;;4.00;3.10;;;18.70;51.40;;;;;;6223054;28;21589;-74
2022/12/21 00:45:23;;;;;;;4.93;3.10;;;18.70;51.50;;;;;;6223451;28;20029;-74
2022/12/21 00:48:25;;;;;;;4.32;2.72;;;18.70;51.40;;;;;;6224360;28;20698;-74
2022/12/21 00:51:28;;;;;;;4.30;3.28;;;18.70;51.40;;;;;;6244635;28;20061;-73
2022/12/21 00:54:28;;;;;;;4.93;2.85;;;18.70;51.50;;;;;;6232618;28;20044;-74
2022/12/21 00:57:29;;;;;;;5.22;3.50;;;18.70;51.40;;;;;;6224329;28;20358;-73
2022/12/21 01:00:30;;;;;;;3.70;2.80;;;18.70;51.40;;;;;;6244756;28;20539;-74
2022/12/21 01:03:31;;;;;;;4.20;2.78;;;18.70;51.40;;;;;;6246249;28;20034;-74
2022/12/21 01:06:34;;;;;;;4.30;2.90;;;18.70;51.40;;;;;;6225048;28;20480;-74
2022/12/21 01:09:34;;;;;;;4.03;2.90;;;18.70;51.40;;;;;;6235852;28;20033;-74
2022/12/21 01:12:35;;;;;;;3.97;2.92;;;18.80;51.50;;;;;;6226160;28;20022;-74
2022/12/21 01:15:43;;;;;;;4.10;2.97;;;18.70;51.40;;;;;;6243200;28;20491;-74
2022/12/21 01:18:44;;;;;;;3.80;2.72;;;18.70;51.40;;;;;;6246719;28;20033;-73
2022/12/21 01:21:45;;;;;;;4.15;2.92;;;18.70;51.50;;;;;;6224584;28;20103;-74
2022/12/21 01:24:47;;;;;;;3.58;2.75;;;18.70;51.40;;;;;;6235097;28;20030;-74
2022/12/21 01:27:47;;;;;;;4.20;2.80;;;18.70;51.40;;;;;;6248989;28;20427;-74
2022/12/21 01:30:48;;;;;;;4.40;3.20;;;18.70;51.50;;;;;;6230838;28;20060;-75
2022/12/21 01:33:48;;;;;;;3.70;2.50;;;18.70;51.50;;;;;;6225295;28;20570;-73
2022/12/21 01:36:50;;;;;;;4.78;3.00;;;18.70;51.50;;;;;;6247057;28;20025;-74
2022/12/21 01:39:50;;;;;;;4.93;3.15;;;18.70;51.50;;;;;;6237745;28;20124;-74
2022/12/21 01:42:51;;;;;;;3.70;2.85;;;18.70;51.50;;;;;;6229209;28;20018;-73
2022/12/21 01:45:52;;;;;;;3.80;2.70;;;18.70;51.50;;;;;;6231272;28;20041;-74
2022/12/21 01:49:26;;;;;;;3.20;2.70;;;18.70;51.50;;;;;;6223800;28;20085;-74
2022/12/21 01:52:29;;;;;;;5.50;3.28;;;18.70;51.60;;;;;;6198971;28;20109;-74
2022/12/21 01:55:30;;;;;;;4.18;2.80;;;18.70;51.50;;;;;;6224725;28;20108;-74
2022/12/21 01:58:33;;;;;;;4.00;2.75;;;18.70;51.60;;;;;;6246190;28;20031;-74
2022/12/21 02:01:34;;;;;;;3.97;2.90;;;18.70;51.50;;;;;;6227725;28;20044;-74
2022/12/21 02:04:35;;;;;;;5.05;3.22;;;18.70;51.50;;;;;;6226784;28;20053;-75
2022/12/21 02:07:35;;;;;;;4.35;3.00;;;18.70;51.60;;;;;;6246890;28;20034;-74
2022/12/21 02:10:36;;;;;;;3.75;2.88;;;18.70;51.60;;;;;;6236883;28;20029;-74
2022/12/21 02:13:37;;;;;;;4.47;2.80;;;18.80;51.60;;;;;;6223001;28;20042;-74
2022/12/21 02:16:47;;;;;;;3.85;2.80;;;18.70;51.60;;;;;;6241718;28;20025;-75
2022/12/21 02:20:30;;;;;;;4.10;3.03;;;18.70;51.60;;;;;;6244864;28;20492;-74
2022/12/21 02:24:11;;;;;;;4.50;2.90;;;18.70;51.60;;;;;;6222821;28;20105;-73
2022/12/21 02:27:12;;;;;;;3.83;2.80;;;18.70;51.60;;;;;;6243745;28;20172;-74
2022/12/21 02:30:20;;;;;;;3.88;2.60;;;18.70;51.60;;;;;;6242611;28;20476;-73
2022/12/21 02:33:37;;;;;;;4.00;2.88;;;18.70;51.60;;;;;;6222619;28;20045;-74
2022/12/21 02:37:06;;;;;;;4.45;2.75;;;18.70;51.70;;;;;;6238464;28;20440;-74
2022/12/21 02:40:53;;;;;;;3.35;2.67;;;18.80;51.70;;;;;;6222447;28;20557;-77
2022/12/21 02:44:13;;;;;;;3.40;2.35;;;18.70;51.70;;;;;;6235400;28;20088;-74
2022/12/21 02:47:33;;;;;;;4.43;3.03;;;18.70;51.60;;;;;;6227477;28;20038;-74
2022/12/21 02:50:42;;;;;;;3.40;2.70;;;18.80;51.70;;;;;;6226946;28;20777;-74
2022/12/21 02:53:44;;;;;;;4.35;3.10;;;18.70;51.60;;;;;;6246575;28;20068;-74
2022/12/21 02:56:45;;;;;;;3.95;2.97;;;18.70;51.70;;;;;;6231049;28;20554;-74
2022/12/21 02:59:49;;;;;;;4.28;2.88;;;18.70;51.60;;;;;;6222178;28;20038;-75
2022/12/21 03:06:38;;;;;;;4.45;2.92;;;18.70;51.70;;;;;;6236072;28;20808;-74
2022/12/21 03:09:50;;;;;;;3.22;2.55;;;18.70;51.70;;;;;;6221036;28;20033;-73
2022/12/21 03:13:14;;;;;;;3.28;2.45;;;18.70;51.70;;;;;;6238236;28;20139;-74
2022/12/21 03:16:15;;;;;;;3.67;2.03;;;18.70;51.70;;;;;;6241877;28;20061;-74
2022/12/21 03:19:30;;;;;;;3.50;2.55;;;18.70;51.70;;;;;;6221612;28;20041;-73
2022/12/21 03:22:39;;;;;;;;;;;18.70;51.70;;;;;;6239222;28;20028;-74
2022/12/21 03:25:49;;;;;;;3.60;2.63;;;18.70;51.70;;;;;;6245517;28;20433;-74
2022/12/21 03:28:51;;;;;;;4.15;2.88;;;18.70;51.70;;;;;;6221807;28;20057;-73
2022/12/21 03:31:56;;;;;;;4.18;3.10;;;18.70;51.70;;;;;;6227404;28;20060;-73
2022/12/21 03:34:58;;;;;;;3.35;2.42;;;18.70;51.60;;;;;;6245905;28;20091;-73
2022/12/21 03:38:02;;;;;;;4.28;2.55;;;18.70;52.30;;;;;;6225444;28;20034;-73
2022/12/21 03:41:09;;;;;;;3.88;2.95;;;18.70;51.60;;;;;;6223577;28;20030;-73
2022/12/21 03:44:15;;;;;;;3.58;2.75;;;18.70;51.60;;;;;;6228336;28;20480;-74
2022/12/21 03:47:21;;;;;;;2.95;2.28;;;18.70;51.60;;;;;;6232067;28;20037;-73
2022/12/21 03:50:27;;;;;;;3.63;2.72;;;18.70;51.60;;;;;;6245092;28;20093;-74
2022/12/21 03:53:53;;;;;;;3.85;2.90;;;18.70;51.60;;;;;;6224846;28;20057;-74
2022/12/21 03:56:55;;;;;;;3.45;2.38;;;18.70;51.60;;;;;;6227434;28;20014;-74
2022/12/21 03:59:59;;;;;;;4.03;2.85;;;18.70;51.70;;;;;;6245257;28;20053;-75
2022/12/21 04:03:16;;;;;;;4.40;2.58;;;18.70;51.70;;;;;;6229502;28;20033;-75
2022/12/21 04:06:23;;;;;;;3.85;2.67;;;18.70;51.60;;;;;;6220858;28;20117;-74
2022/12/21 04:09:23;;;;;;;4.75;2.83;;;18.70;51.60;;;;;;6244817;28;20103;-74
2022/12/21 04:12:36;;;;;;;4.05;2.90;;;18.70;51.60;;;;;;6232485;28;20029;-74
2022/12/21 04:28:07;;;;;;;3.58;2.78;;;18.70;51.70;;;;;;6226899;28;20037;-74
2022/12/21 04:28:55;;;;;;;3.90;2.63;;;18.70;51.60;;;;;;6225781;28;20496;-74
2022/12/21 04:31:56;;;;;;;3.65;2.67;;;18.70;51.60;;;;;;6222350;28;20069;-74
2022/12/21 04:34:56;;;;;;;3.88;2.58;;;18.80;51.70;;;;;;6244580;28;20037;-74
2022/12/21 04:37:57;;;;;;;3.50;2.53;;;18.70;51.60;;;;;;6234500;28;20423;-73
2022/12/21 04:40:58;;;;;;;3.47;2.53;;;18.70;51.60;;;;;;6219899;28;20061;-75
2022/12/21 04:43:58;;;;;;;3.40;2.38;;;18.70;51.60;;;;;;6222436;28;20105;-74
2022/12/21 04:46:59;;;;;;;3.38;2.50;;;18.70;51.70;;;;;;6220900;28;20073;-74
2022/12/21 04:50:00;;;;;;;4.13;2.92;;;18.70;51.60;;;;;;6244571;28;20519;-74
2022/12/21 04:53:00;;;;;;;4.43;2.70;;;18.70;51.60;;;;;;6238369;28;20037;-74
2022/12/21 04:56:01;;;;;;;4.07;2.42;;;18.70;51.70;;;;;;6220193;28;20033;-74
2022/12/21 05:02:58;;;;;;;3.85;2.53;;;18.70;51.70;;;;;;6238129;28;20058;-74
2022/12/21 05:05:59;;;;;;;6.03;2.97;;;18.70;51.70;;;;;;6219960;28;20538;-74
2022/12/21 05:08:59;;;;;;;3.70;2.63;;;18.70;51.70;;;;;;6234454;28;20028;-74
2022/12/21 05:12:00;;;;;;;3.63;2.75;;;18.70;51.70;;;;;;6226409;28;20065;-75
2022/12/21 05:15:01;;;;;;;3.10;2.33;;;18.70;51.60;;;;;;6240616;28;20496;-75
2022/12/21 05:18:01;;;;;;;4.15;2.78;;;18.70;51.70;;;;;;6239064;28;20025;-73
2022/12/21 05:21:02;;;;;;;3.40;2.47;;;18.70;51.70;;;;;;6228002;28;20038;-73
2022/12/21 05:24:03;;;;;;;3.15;2.35;;;18.70;51.70;;;;;;6226627;28;20033;-74
2022/12/21 05:27:03;;;;;;;3.15;2.58;;;18.70;51.70;;;;;;6219432;28;20403;-73
2022/12/21 05:30:05;;;;;;;3.67;2.58;;;18.70;51.70;;;;;;6240079;28;20108;-74
2022/12/21 05:33:06;;;;;;;3.60;2.53;;;18.70;51.70;;;;;;6238514;28;20157;-74
2022/12/21 05:36:09;;;;;;;4.55;2.80;;;18.70;51.70;;;;;;6219473;28;20484;-73
2022/12/21 05:39:10;;;;;;;3.65;2.65;;;18.70;51.70;;;;;;6231205;28;20026;-74
2022/12/21 05:42:10;;;;;;;2.88;2.22;;;18.70;51.70;;;;;;6245010;28;20184;-74
2022/12/21 05:45:11;;;;;;;3.40;2.30;;;18.70;51.70;;;;;;6242876;28;20029;-75
2022/12/21 05:48:12;;;;;;;3.72;2.90;;;18.70;51.70;;;;;;6245625;28;20028;-73
2022/12/21 05:51:14;;;;;;;3.80;2.45;;;18.70;51.70;;;;;;6223604;28;20096;-75
2022/12/21 05:54:15;;;;;;;3.42;2.60;;;18.70;51.70;;;;;;6233761;28;20092;-74
2022/12/21 05:57:16;;;;;;;2.80;2.20;;;18.70;51.70;;;;;;6248297;28;20074;-74
2022/12/21 06:00:17;;;;;;;3.40;2.42;;;18.70;51.70;;;;;;6229852;28;20022;-74
2022/12/21 06:03:18;;;;;;;2.70;2.00;;;18.70;51.70;;;;;;6204666;28;20041;-75
2022/12/21 06:06:18;;;;;;;4.00;2.60;;;18.70;51.70;;;;;;6248107;28;20471;-74
2022/12/21 06:09:19;;;;;;;3.97;2.55;;;18.70;51.70;;;;;;6238977;28;20099;-74
2022/12/21 06:12:19;;;;;;;3.65;2.55;;;18.70;51.70;;;;;;6221140;28;20587;-75
2022/12/21 06:15:20;;;;;;;3.10;2.30;;;18.70;51.70;;;;;;6239526;28;20033;-75
2022/12/21 06:18:21;;;;;;;3.33;2.40;;;18.70;51.70;;;;;;6247908;28;20096;-73
2022/12/21 06:21:21;;;;;;;3.05;2.20;;;18.80;51.70;;;;;;6223323;28;20384;-73
2022/12/21 06:24:22;;;;;;;3.00;2.20;;;18.80;51.70;;;;;;6229668;28;20075;-74
2022/12/21 06:27:22;;;;;;;3.40;2.40;;;18.70;51.70;;;;;;6247488;28;20515;-74
2022/12/21 06:30:23;;;;;;;3.47;2.42;;;18.80;51.70;;;;;;6231108;28;20041;-74
2022/12/21 06:33:23;;;;;;;3.45;2.40;;;18.80;51.70;;;;;;6222883;28;20041;-74
2022/12/21 06:36:24;;;;;;;3.70;2.20;;;18.70;51.70;;;;;;6245105;28;20044;-74
2022/12/21 06:39:25;;;;;;;3.20;2.45;;;18.70;51.70;;;;;;6241576;28;20076;-74
2022/12/21 06:42:25;;;;;;;2.92;2.20;;;18.80;51.80;;;;;;6225287;28;20029;-75
2022/12/21 06:45:26;;;;;;;2.60;2.03;;;18.70;51.70;;;;;;6233700;28;20018;-74
2022/12/21 06:48:28;;;;;;;4.07;2.60;;;18.80;52.40;;;;;;6223812;28;20088;-75
2022/12/21 06:51:28;;;;;;;3.08;2.38;;;18.70;51.70;;;;;;6242749;28;20053;-75
2022/12/21 06:54:29;;;;;;;3.22;2.13;;;18.80;51.80;;;;;;6242171;28;20402;-74
2022/12/21 06:57:32;;;;;;;2.92;2.15;;;18.80;51.70;;;;;;6221954;28;20041;-74
2022/12/21 07:00:32;;;;;;;2.70;2.10;;;18.70;51.70;;;;;;6216821;28;20036;-74
2022/12/21 07:03:33;;;;;;;3.17;2.35;;;18.70;51.70;;;;;;6223692;28;20057;-74
2022/12/21 07:06:34;;;;;;;3.30;2.63;;;18.70;51.70;;;;;;6223618;28;20041;-74
2022/12/21 07:09:35;;;;;;;5.78;2.20;;;18.70;51.70;;;;;;6226086;28;20029;-74
2022/12/21 07:12:35;;;;;;;3.30;2.25;;;18.70;51.70;;;;;;6223413;28;20072;-78
2022/12/21 07:15:36;;;;;;;3.30;2.35;;;18.70;51.70;;;;;;6233590;28;20033;-73
2022/12/21 07:18:37;;;;;;;3.03;2.13;;;18.70;51.70;;;;;;6247914;28;20053;-74
2022/12/21 07:21:38;;;;;;;2.42;1.80;;;18.70;51.70;;;;;;6229683;28;20025;-74
2022/12/21 07:24:39;;;;;;;3.55;2.28;;;18.70;51.80;;;;;;6222835;28;20112;-74
2022/12/21 07:27:39;;;;;;;2.38;1.92;;;18.70;51.80;;;;;;6246088;28;20029;-74
2022/12/21 07:30:40;;;;;;;2.65;1.85;;;18.70;51.70;;;;;;6238852;28;20022;-74
2022/12/21 07:33:41;;;;;;;3.72;2.22;;;18.70;51.70;;;;;;6222710;28;20030;-75
2022/12/21 07:36:42;;;;;;;3.28;2.33;;;18.70;51.70;;;;;;6239639;28;20026;-75
2022/12/21 07:39:42;;;;;;;2.63;2.05;;;18.80;51.90;;;;;;6245620;28;20029;-74
2022/12/21 07:42:44;;;;;;;3.20;2.22;;;18.70;51.70;;;;;;6228585;28;20018;-73
2022/12/21 07:45:45;;;;;;;2.95;2.40;;;18.70;51.80;;;;;;6219115;28;20036;-74
2022/12/21 07:48:45;;;;;;;2.70;2.00;;;18.70;51.80;;;;;;6211552;28;20112;-74
2022/12/21 07:51:46;;;;;;;2.70;2.22;;;18.80;51.80;;;;;;6225380;28;20108;-74
2022/12/21 07:54:46;;;;;;;2.95;2.10;;;18.80;51.80;;;;;;6221869;28;20060;-72
2022/12/21 07:57:47;;;;;;;3.72;2.20;;;18.80;51.80;;;;;;6224366;28;20032;-74
2022/12/21 08:00:49;;;;;;;2.70;2.10;;;18.80;51.90;;;;;;6239239;28;20458;-73
2022/12/21 08:03:51;;;;;;;2.90;2.15;;;18.80;51.90;;;;;;6247820;28;20037;-73
2022/12/21 08:06:52;;;;;;;3.05;2.28;;;18.80;51.90;;;;;;6232552;28;20070;-74
2022/12/21 08:09:52;;;;;;;4.40;2.40;;;18.80;51.90;;;;;;6222518;28;20501;-74
2022/12/21 08:12:53;;;;;;;3.95;2.28;;;18.80;51.80;;;;;;6244094;28;20041;-74
2022/12/21 08:16:00;;;;;;;7.35;2.97;;;18.80;51.90;;;;;;6242355;28;20034;-74
2022/12/21 08:19:01;;;;;;;4.13;2.38;;;18.80;51.90;;;;;;6222599;28;20030;-74
2022/12/21 08:22:02;;;;;;;3.63;2.28;;;18.80;51.90;;;;;;6235281;28;20057;-74
2022/12/21 08:25:02;;;;;;;4.95;2.42;;;18.80;51.90;;;;;;6246864;28;20024;-74
2022/12/21 08:28:03;;;;;;;3.90;2.42;;;18.80;51.90;;;;;;6225964;28;20030;-74
2022/12/21 08:31:07;;;;;;;3.47;2.33;;;18.80;51.90;;;;;;6226238;28;20060;-75
2022/12/21 08:34:07;;;;;;;3.70;2.28;;;18.80;51.90;;;;;;6246822;28;20069;-74
2022/12/21 08:37:08;;;;;;;2.78;2.10;;;18.80;52.00;;;;;;6236053;28;20056;-74
2022/12/21 08:40:09;;;;;;;2.83;2.05;;;18.80;51.90;;;;;;6246884;28;20101;-74
2022/12/21 08:43:10;;;;;;;4.55;2.60;;;18.80;51.90;;;;;;6234119;28;20030;-74
2022/12/21 08:46:11;;;;;;;3.30;2.42;;;18.80;51.90;;;;;;6242323;28;20500;-74
2022/12/21 08:49:12;;;;;;;4.68;1.90;;;18.80;51.90;;;;;;6221954;28;20062;-74
2022/12/21 08:52:13;;;;;;;3.60;2.25;;;18.80;51.90;;;;;;6232813;28;20538;-74
2022/12/21 08:55:13;;;;;;;4.38;2.90;;;18.80;51.90;;;;;;6246350;28;20105;-74
2022/12/21 08:58:14;;;;;;;2.95;2.00;;;18.80;52.00;;;;;;6228494;28;20033;-74
2022/12/21 09:01:23;;;;;;;3.08;2.45;;;18.70;51.90;;;;;;6222924;28;20384;-74
2022/12/21 09:04:23;;;;;;;3.90;2.17;;;18.70;51.90;;;;;;6246771;28;20500;-73
2022/12/21 09:07:24;;;;;;;3.50;2.35;;;18.70;51.90;;;;;;6234395;28;20045;-74
2022/12/21 09:10:24;;;;;;;4.65;2.10;;;18.70;51.90;;;;;;6222026;28;20034;-74
2022/12/21 09:13:25;;;;;;;2.50;1.92;;;18.80;51.90;;;;;;6239161;28;20388;-74
2022/12/21 09:16:26;;;;;;;2.20;1.67;;;18.70;52.60;;;;;;6246425;28;20056;-74
2022/12/21 09:19:26;;;;;;;3.28;2.35;;;18.70;51.80;;;;;;6226776;28;20116;-74
2022/12/21 09:22:27;;;;;;;2.95;2.00;;;18.70;51.90;;;;;;6234652;28;20111;-74
2022/12/21 09:25:28;;;;;;;2.42;1.92;;;18.80;51.90;;;;;;6250701;28;20478;-74
2022/12/21 09:28:28;;;;;;;4.13;2.60;;;18.70;51.90;;;;;;6234905;28;20030;-74
2022/12/21 09:31:29;;;;;;;3.33;1.98;;;18.70;51.90;;;;;;6226309;28;20112;-75
2022/12/21 09:34:29;;;;;;;2.80;1.95;;;18.70;51.90;;;;;;6249638;28;20540;-74
2022/12/21 09:37:30;;;;;;;2.47;1.90;;;18.70;51.90;;;;;;6243860;28;20033;-74
2022/12/21 09:40:32;;;;;;;4.53;2.42;;;18.70;51.90;;;;;;6226317;28;20475;-74
2022/12/21 09:44:08;;;;;;;3.13;2.08;;;18.80;51.90;;;;;;6228077;28;20072;-74
2022/12/21 09:47:15;;;;;;;5.40;2.10;;;18.80;51.90;;;;;;6208710;28;20562;-74
2022/12/21 09:50:41;;;;;;;2.47;1.80;;;18.70;51.90;;;;;;6250281;28;20058;-73
2022/12/21 09:53:59;;;;;;;3.03;2.22;;;18.80;52.00;;;;;;6235641;28;20088;-74
2022/12/21 09:57:00;;;;;;;3.35;2.05;;;18.80;51.90;;;;;;6225605;28;20476;-75
2022/12/21 10:00:12;;;;;;;2.75;1.92;;;18.80;51.90;;;;;;6249932;28;20045;-74
2022/12/21 10:03:36;;;;;;;2.63;1.70;;;18.70;51.90;;;;;;6240996;28;20101;-74
2022/12/21 10:07:08;;;;;;;2.60;1.83;;;18.80;52.00;;;;;;6225496;28;20431;-74
2022/12/21 10:10:31;;;;;;;2.92;1.90;;;18.70;51.90;;;;;;6246647;28;20037;-74
2022/12/21 10:13:47;;;;;;;2.97;1.85;;;18.70;51.90;;;;;;6235037;28;20116;-74
2022/12/21 10:16:56;;;;;;;2.22;1.67;;;18.80;51.90;;;;;;6249767;28;20163;-75
2022/12/21 10:20:41;;;;;;;2.47;1.90;;;18.80;51.90;;;;;;6228909;28;20373;-74
2022/12/21 10:23:46;;;;;;;2.55;1.80;;;18.80;51.90;;;;;;6187171;28;20034;-74
2022/12/21 10:26:48;;;;;;;;;;;18.70;51.80;;;;;;6250051;28;20076;-74
2022/12/21 10:29:54;;;;;;;2.67;1.75;;;18.80;52.00;;;;;;6229915;28;19920;-74
2022/12/21 10:32:57;;;;;;;2.97;1.88;;;18.70;51.90;;;;;;6227056;28;20030;-76
2022/12/21 10:36:04;;;;;;;2.88;2.05;;;18.80;52.10;;;;;;6249293;28;20036;-74
2022/12/21 10:39:04;;;;;;;2.35;1.80;;;18.80;52.00;;;;;;6237974;28;20045;-74
2022/12/21 10:42:23;;;;;;;2.33;1.73;;;18.80;51.90;;;;;;6224594;28;20034;-74
2022/12/21 10:45:25;;;;;;;2.20;1.52;;;18.70;52.00;;;;;;6227893;28;20046;-74
2022/12/21 10:48:25;;;;;;;2.40;1.75;;;18.70;52.00;;;;;;6228842;28;20033;-73
2022/12/21 10:51:32;;;;;;;1.85;1.55;;;18.70;51.90;;;;;;6246796;28;20053;-74
2022/12/21 10:54:32;;;;;;;1.77;1.35;;;18.70;52.00;;;;;;6235906;28;20088;-74
2022/12/21 10:57:33;;;;;;;2.03;1.52;;;18.70;52.00;;;;;;6223984;28;20042;-74
2022/12/21 11:00:40;;;;;;;2.35;1.77;;;18.80;52.10;;;;;;6244470;28;20037;-74
2022/12/21 11:03:41;;;;;;;2.40;1.80;;;18.70;51.90;;;;;;6244078;28;20021;-74
2022/12/21 11:07:05;;;;;;;1.67;1.50;;;18.80;52.00;;;;;;6224033;28;20069;-74
2022/12/21 11:10:24;;;;;;;5.30;1.90;;;18.80;51.90;;;;;;6236911;28;20025;-74
2022/12/21 11:13:30;;;;;;;2.58;1.90;;;18.80;51.90;;;;;;6224723;28;20072;-73
2022/12/21 11:16:31;;;;;;;2.50;1.65;;;18.70;51.80;;;;;;6248493;28;20059;-74
2022/12/21 11:19:34;;;;;;;2.70;1.80;;;18.70;51.90;;;;;;6238546;28;20026;-73
2022/12/21 11:22:39;;;;;;;2.10;1.60;;;18.80;51.90;;;;;;6223126;28;20109;-73
2022/12/21 11:25:41;;;;;;;2.15;1.55;;;18.80;51.90;;;;;;6240524;28;20038;-74
2022/12/21 11:28:42;;;;;;;2.45;1.80;;;18.80;51.90;;;;;;6245169;28;20045;-74
2022/12/21 11:31:44;;;;;;;2.65;1.90;;;18.80;52.70;;;;;;6221984;28;20049;-74
2022/12/21 11:34:51;;;;;;;2.85;1.45;;;18.80;52.00;;;;;;6230731;28;20087;-74
2022/12/21 11:38:02;;;;;;;1.98;1.50;;;18.80;52.00;;;;;;6247287;28;20416;-74
2022/12/21 11:41:17;;;;;;;2.22;1.50;;;18.80;52.00;;;;;;6227686;28;20088;-74
2022/12/21 11:44:23;;;;;;;2.95;1.70;;;18.70;51.90;;;;;;6235837;28;20112;-76
2022/12/21 11:47:40;;;;;;;1.95;1.50;;;18.80;52.00;;;;;;6223147;28;20062;-75
2022/12/21 11:51:12;;;;;;;3.03;1.70;;;18.80;52.00;;;;;;6237534;28;20053;-74
2022/12/21 11:54:37;;;;;;;1.55;1.40;;;18.80;52.00;;;;;;6240477;28;20786;-76
2022/12/21 11:58:22;;;;;;;1.85;1.50;;;18.80;52.00;;;;;;6222876;28;20029;-75
2022/12/21 12:01:53;;;;;;;2.30;1.70;;;18.80;52.10;;;;;;6193888;28;20039;-76
2022/12/21 12:05:08;;;;;;;1.80;1.50;;;18.80;52.00;;;;;;6240921;28;20080;-75
2022/12/21 12:08:40;;;;;;;2.03;1.60;;;18.70;51.90;;;;;;6222879;28;20033;-75
2022/12/21 12:11:59;;;;;;;1.98;1.40;;;18.80;52.10;;;;;;6223259;28;20148;-76
2022/12/21 12:15:30;;;;;;;2.10;1.60;;;18.80;52.00;;;;;;6227853;28;20130;-75
2022/12/21 12:18:49;;;;;;;2.03;1.63;;;18.80;52.00;;;;;;6247125;28;20032;-75
2022/12/21 12:21:50;;;;;;;2.17;1.52;;;18.70;52.60;;;;;;6226972;28;20025;-76
2022/12/21 12:25:05;;;;;;;5.82;1.48;;;18.80;52.00;;;;;;6225305;28;20036;-76
2022/12/21 12:28:16;;;;;;;2.13;1.63;;;18.70;51.90;;;;;;6246780;28;20021;-75
2022/12/21 12:31:40;;;;;;;2.42;1.67;;;18.80;52.00;;;;;;6233120;28;20034;-76
2022/12/21 12:34:55;;;;;;;1.70;1.50;;;18.70;51.90;;;;;;6221996;28;20451;-75
2022/12/21 12:38:24;;;;;;;1.80;1.50;;;18.80;52.10;;;;;;6246647;28;20112;-75
2022/12/21 12:41:39;;;;;;;2.50;1.50;;;18.70;52.00;;;;;;6207103;28;20038;-75
2022/12/21 12:45:10;;;;;;;2.58;1.40;;;18.80;52.00;;;;;;6242535;28;20674;-75
2022/12/21 12:48:13;;;;;;;4.72;1.40;;;18.80;52.00;;;;;;6197652;28;20022;-76
2022/12/21 12:51:22;;;;;;;1.95;1.40;;;18.80;52.10;;;;;;6219824;28;20108;-76
2022/12/21 12:54:41;;;;;;;2.58;1.52;;;18.70;52.00;;;;;;6251399;28;20042;-75
2022/12/21 12:57:47;;;;;;;2.45;1.48;;;18.80;52.00;;;;;;6229436;28;20472;-75
2022/12/21 13:01:21;;;;;;;1.52;1.10;;;18.80;52.00;;;;;;6230805;28;20025;-75
2022/12/21 13:04:33;;;;;;;1.90;1.33;;;18.80;52.10;;;;;;6211885;28;20030;-75
2022/12/21 13:07:41;;;;;;;1.17;1.05;;;18.80;52.00;;;;;;6246272;28;20602;-75
2022/12/21 13:11:07;;;;;;;2.85;1.50;;;18.80;52.00;;;;;;6247797;28;20057;-76
2022/12/21 13:14:15;;;;;;;2.08;1.30;;;18.80;52.00;;;;;;6250994;28;20033;-76
2022/12/21 13:17:34;;;;;;;1.60;1.20;;;18.80;52.00;;;;;;6235222;28;20388;-75
2022/12/21 13:20:37;;;;;;;2.15;1.50;;;18.80;52.10;;;;;;6227654;28;20026;-75
2022/12/21 13:23:57;;;;;;;1.65;1.33;;;18.80;52.00;;;;;;6250893;28;20021;-75
2022/12/21 13:27:03;;;;;;;2.63;1.10;;;18.80;52.00;;;;;;6238946;28;20085;-75
2022/12/21 13:30:25;;;;;;;1.15;1.00;;;18.80;52.00;;;;;;6226177;28;20034;-76
2022/12/21 13:33:28;;;;;;;1.60;1.27;;;18.80;52.00;;;;;;6248788;28;20377;-77
2022/12/21 13:36:37;;;;;;;1.25;1.00;;;18.80;52.00;;;;;;6242216;28;20025;-75
2022/12/21 13:39:44;;;;;;;2.30;1.50;;;18.80;51.90;;;;;;6224424;28;20451;-75
2022/12/21 13:42:53;;;;;;;1.75;1.35;;;18.80;52.00;;;;;;6236442;28;20022;-76
2022/12/21 13:46:05;;;;;;;1.42;1.25;;;18.80;52.10;;;;;;6226205;28;20033;-75
2022/12/21 13:49:28;;;;;;;2.35;1.30;;;18.80;52.00;;;;;;6250083;28;20049;-76
2022/12/21 13:52:52;;;;;;;2.15;1.52;;;18.80;52.10;;;;;;6235960;28;20034;-76
2022/12/21 13:56:13;;;;;;;1.42;1.13;;;18.80;52.00;;;;;;6225109;28;20465;-76
2022/12/21 13:59:52;;;;;;;1.70;1.13;;;18.80;52.00;;;;;;6201412;28;20543;-76
2022/12/21 14:02:56;;;;;;;1.38;1.15;;;18.80;52.10;;;;;;6229929;28;20026;-76
2022/12/21 14:06:15;;;;;;;2.30;1.30;;;18.80;52.00;;;;;;6249864;28;20080;-74
2022/12/21 14:10:06;;;;;;;1.42;1.10;;;18.80;52.10;;;;;;6201063;28;20026;-76
2022/12/21 14:13:22;;;;;;;1.40;1.27;;;18.80;52.00;;;;;;6191887;28;20038;-76
2022/12/21 14:16:32;;;;;;;1.45;1.10;;;18.80;52.10;;;;;;6225303;28;20486;-75
2022/12/21 14:19:33;;;;;;;1.65;1.10;;;18.80;52.10;;;;;;6249476;28;20033;-75
2022/12/21 14:22:43;;;;;;;2.15;1.40;;;18.80;52.00;;;;;;6240671;28;20026;-75
2022/12/21 14:25:48;;;;;;;1.50;1.27;;;18.80;52.10;;;;;;6224831;28;20033;-75
2022/12/21 14:28:50;;;;;;;1.30;1.20;;;18.80;52.10;;;;;;6243590;28;20025;-75
2022/12/21 14:31:57;;;;;;;1.80;1.30;;;18.80;52.10;;;;;;6247466;28;20102;-75
2022/12/21 14:35:03;;;;;;;2.00;1.27;;;18.80;52.10;;;;;;6224601;28;20107;-76
2022/12/21 14:38:18;;;;;;;1.52;1.15;;;18.80;52.10;;;;;;6235969;28;20092;-77
2022/12/21 14:41:34;;;;;;;1.80;1.30;;;18.80;52.20;;;;;;6248920;28;20033;-76
2022/12/21 14:44:35;;;;;;;1.10;1.00;;;18.80;52.00;;;;;;6246265;28;20022;-76
2022/12/21 14:47:37;;;;;;;1.65;1.35;;;18.80;52.10;;;;;;6242739;28;20053;-75
2022/12/21 14:50:38;;;;;;;1.25;1.02;;;18.80;52.20;;;;;;6223746;28;20054;-75
2022/12/21 14:53:58;;;;;;;1.90;1.33;;;18.80;52.10;;;;;;6238122;28;20397;-76
2022/12/21 14:57:15;;;;;;;1.55;1.17;;;18.80;52.10;;;;;;6248980;28;20130;-76
2022/12/21 15:00:21;;;;;;;1.70;1.13;;;18.80;52.10;;;;;;6199719;28;20117;-75
2022/12/21 15:03:23;;;;;;;1.38;1.00;;;18.80;52.10;;;;;;6220239;28;20101;-75
2022/12/21 15:06:42;;;;;;;1.10;0.98;;;18.80;52.10;;;;;;6248299;28;20492;-76
2022/12/21 15:09:53;;;;;;;1.48;1.20;;;18.80;52.10;;;;;;6227669;28;20022;-76
2022/12/21 15:12:55;;;;;;;1.10;1.00;;;18.80;52.20;;;;;;6209632;28;20033;-76
2022/12/21 15:16:17;;;;;;;0.90;0.88;;;18.80;52.10;;;;;;6247673;28;20038;-75
2022/12/21 15:19:36;;;;;;;1.20;0.90;;;18.80;52.10;;;;;;6223275;28;20054;-73
2022/12/21 15:22:50;;;;;;;1.52;1.10;;;18.80;52.10;;;;;;6201777;28;20023;-75
2022/12/21 15:26:00;;;;;;;1.92;1.10;;;18.80;52.10;;;;;;6222274;28;20120;-75
2022/12/21 15:29:04;;;;;;;1.60;1.10;;;18.80;52.20;;;;;;6223546;28;20053;-75
2022/12/21 15:32:39;;;;;;;1.50;1.00;;;18.80;52.20;;;;;;6223487;28;20048;-76
2022/12/21 15:35:43;;;;;;;1.20;1.02;;;18.80;52.20;;;;;;6183119;28;20398;-75
2022/12/21 15:38:47;;;;;;;1.30;1.05;;;18.80;52.10;;;;;;6213947;28;20060;-75
2022/12/21 15:41:54;;;;;;;1.25;0.90;;;18.80;52.20;;;;;;6247874;28;20431;-75
2022/12/21 15:45:05;;;;;;;1.73;1.20;;;18.80;52.20;;;;;;6241734;28;20023;-75
2022/12/21 15:48:20;;;;;;;2.30;0.90;;;18.80;52.10;;;;;;6251795;28;20109;-76
2022/12/21 15:51:30;;;;;;;1.08;0.80;;;18.80;52.20;;;;;;6246918;28;20389;-76
2022/12/21 15:54:31;;;;;;;1.27;1.05;;;18.80;52.20;;;;;;6259127;28;20491;-75
2022/12/21 15:57:35;;;;;;;1.60;1.10;;;18.80;52.20;;;;;;6271484;28;20060;-75
2022/12/21 16:00:54;;;;;;;1.15;0.88;;;18.80;52.20;;;;;;6250678;28;20108;-75
2022/12/21 16:03:55;;;;;;;1.23;0.98;;;18.80;52.20;;;;;;6253125;28;20352;-76
2022/12/21 16:06:58;;;;;;;1.17;1.00;;;18.70;52.10;;;;;;6271636;28;20056;-75
2022/12/21 16:10:05;;;;;;;1.55;1.15;;;18.80;52.30;;;;;;6256713;28;20029;-75
2022/12/21 16:13:10;;;;;;;1.70;1.20;;;18.80;52.20;;;;;;6246787;28;20040;-76
2022/12/21 16:16:16;;;;;;;1.60;1.23;;;18.80;52.20;;;;;;6269921;28;20017;-76
2022/12/21 16:19:22;;;;;;;1.98;1.23;;;18.80;52.20;;;;;;6262682;28;20476;-75
2022/12/21 16:22:31;;;;;;;1.05;0.82;;;18.80;52.20;;;;;;6245572;28;20051;-75
2022/12/21 16:25:34;;;;;;;1.08;0.90;;;18.80;52.20;;;;;;6247069;28;20024;-74
2022/12/21 16:28:39;;;;;;;1.25;0.93;;;18.80;52.20;;;;;;6245191;28;20377;-78
2022/12/21 16:31:42;;;;;;;1.15;0.95;;;18.80;52.10;;;;;;6246487;28;20529;-75
2022/12/21 16:34:45;;;;;;;1.08;0.88;;;18.80;52.20;;;;;;6255237;28;20064;-75